createdAt,value
2023-04-20T00:02:17.879Z,4.90
2023-04-20T00:04:50.401Z,5.00
2023-04-20T00:07:24.927Z,4.90
2023-04-20T00:09:57.053Z,4.90
2023-04-20T00:12:29.120Z,4.90
2023-04-20T00:15:01.384Z,4.80
2023-04-20T00:17:33.672Z,4.90
2023-04-20T00:20:10.172Z,4.90
2023-04-20T00:22:42.295Z,4.90
2023-04-20T00:25:14.381Z,4.90
2023-04-20T00:27:46.803Z,5.00
2023-04-20T00:30:19.033Z,5.00
2023-04-20T00:32:51.758Z,4.90
2023-04-20T00:35:24.110Z,4.90
2023-04-20T00:37:57.140Z,4.90
2023-04-20T00:40:31.093Z,5.00
2023-04-20T00:43:11.042Z,5.00
2023-04-20T00:45:43.132Z,5.00
2023-04-20T00:48:15.822Z,5.00
2023-04-20T00:50:49.033Z,5.00
2023-04-20T00:53:21.362Z,5.00
2023-04-20T00:55:54.772Z,5.00
2023-04-20T00:58:27.085Z,5.00
2023-04-20T01:00:59.510Z,5.00
2023-04-20T01:03:32.487Z,5.00
2023-04-20T01:06:07.953Z,4.90
2023-04-20T01:08:48.295Z,5.00
2023-04-20T01:11:20.370Z,5.00
2023-04-20T01:13:52.471Z,5.00
2023-04-20T01:16:24.661Z,4.90
2023-04-20T01:18:57.450Z,4.90
2023-04-20T01:21:29.735Z,4.90
2023-04-20T01:24:04.014Z,4.90
2023-04-20T01:26:37.923Z,4.90
2023-04-20T01:29:12.881Z,4.90
2023-04-20T01:31:45.083Z,4.90
2023-04-20T01:34:17.846Z,4.80
2023-04-20T01:36:50.789Z,4.90
2023-04-20T01:39:22.927Z,4.80
2023-04-20T01:41:55.049Z,4.80
2023-04-20T01:44:27.197Z,4.80
2023-04-20T01:46:59.582Z,4.80
2023-04-20T01:49:32.282Z,4.80
2023-04-20T01:52:04.474Z,4.80
2023-04-20T01:54:37.660Z,4.80
2023-04-20T01:57:10.028Z,4.80
2023-04-20T01:59:42.126Z,4.70
2023-04-20T02:02:14.324Z,4.70
2023-04-20T02:04:46.575Z,4.70
2023-04-20T02:07:18.745Z,4.80
2023-04-20T02:09:50.826Z,4.80
2023-04-20T02:12:23.335Z,4.80
2023-04-20T02:14:55.521Z,4.80
2023-04-20T02:17:30.065Z,4.80
2023-04-20T02:20:02.205Z,4.80
2023-04-20T02:22:35.308Z,4.80
2023-04-20T02:25:09.326Z,4.80
2023-04-20T02:27:42.833Z,4.80
2023-04-20T02:30:17.146Z,4.80
2023-04-20T02:32:49.392Z,4.70
2023-04-20T02:35:22.164Z,4.80
2023-04-20T02:37:54.376Z,4.80
2023-04-20T02:40:26.515Z,4.80
2023-04-20T02:42:59.403Z,4.80
2023-04-20T02:45:33.410Z,4.70
2023-04-20T02:48:06.067Z,4.80
2023-04-20T02:50:38.624Z,4.70
2023-04-20T02:53:20.890Z,4.70
2023-04-20T02:56:00.360Z,4.70
2023-04-20T02:58:45.010Z,4.70
2023-04-20T03:01:40.018Z,4.70
2023-04-20T03:04:19.612Z,4.60
2023-04-20T03:07:05.962Z,4.60
2023-04-20T03:09:40.504Z,4.60
2023-04-20T03:12:29.184Z,4.50
2023-04-20T03:15:33.808Z,4.50
2023-04-20T03:18:21.113Z,4.50
2023-04-20T03:20:53.356Z,4.50
2023-04-20T03:23:25.692Z,4.50
2023-04-20T03:25:57.941Z,4.50
2023-04-20T03:28:51.244Z,4.50
2023-04-20T03:31:27.238Z,4.50
2023-04-20T03:34:02.156Z,4.50
2023-04-20T03:36:34.552Z,4.40
2023-04-20T03:39:07.220Z,4.40
2023-04-20T03:41:39.799Z,4.40
2023-04-20T03:44:12.437Z,4.50
2023-04-20T03:46:44.525Z,4.50
2023-04-20T03:49:16.939Z,4.50
2023-04-20T03:51:49.679Z,4.50
2023-04-20T03:54:21.755Z,4.50
2023-04-20T03:56:54.311Z,4.50
2023-04-20T03:59:27.018Z,4.50
2023-04-20T04:02:00.024Z,4.50
2023-04-20T04:04:32.834Z,4.50
2023-04-20T04:07:05.802Z,4.50
2023-04-20T04:09:37.969Z,4.40
2023-04-20T04:12:10.550Z,4.40
2023-04-20T04:14:43.410Z,4.40
2023-04-20T04:17:18.173Z,4.30
2023-04-20T04:19:51.142Z,4.40
2023-04-20T04:22:23.266Z,4.30
2023-04-20T04:25:15.509Z,4.30
2023-04-20T04:27:49.369Z,4.30
2023-04-20T04:30:21.484Z,4.20
2023-04-20T04:32:53.929Z,4.20
2023-04-20T04:35:27.120Z,4.20
2023-04-20T04:38:01.182Z,4.20
2023-04-20T04:40:34.198Z,4.20
2023-04-20T04:43:10.394Z,4.10
2023-04-20T04:45:45.680Z,4.20
2023-04-20T04:48:17.908Z,4.20
2023-04-20T04:50:51.460Z,4.20
2023-04-20T04:53:23.682Z,4.30
2023-04-20T04:55:56.101Z,4.20
2023-04-20T04:58:28.287Z,4.20
2023-04-20T05:01:00.343Z,4.10
2023-04-20T05:03:32.636Z,4.20
2023-04-20T05:06:05.341Z,4.20
2023-04-20T05:08:37.493Z,4.20
2023-04-20T05:11:09.698Z,4.20
2023-04-20T05:13:41.991Z,4.20
2023-04-20T05:16:14.584Z,4.20
2023-04-20T05:18:46.897Z,4.20
2023-04-20T05:21:19.523Z,4.20
2023-04-20T05:23:51.946Z,4.20
2023-04-20T05:26:24.180Z,4.20
2023-04-20T05:28:56.246Z,4.20
2023-04-20T05:31:29.468Z,4.20
2023-04-20T05:34:02.979Z,4.30
2023-04-20T05:36:35.081Z,4.20
2023-04-20T05:39:07.267Z,4.30
2023-04-20T05:41:39.988Z,4.20
2023-04-20T05:44:12.303Z,4.20
2023-04-20T05:46:44.561Z,4.20
2023-04-20T05:49:17.109Z,4.20
2023-04-20T05:51:49.569Z,4.20
2023-04-20T05:54:22.702Z,4.20
2023-04-20T05:56:55.766Z,4.20
2023-04-20T05:59:28.380Z,4.20
2023-04-20T06:02:00.935Z,4.20
2023-04-20T06:04:33.469Z,4.20
2023-04-20T06:07:05.956Z,4.20
2023-04-20T06:09:38.436Z,4.30
2023-04-20T06:12:10.553Z,4.30
2023-04-20T06:14:42.951Z,4.40
2023-04-20T06:17:15.248Z,4.40
2023-04-20T06:19:47.679Z,4.40
2023-04-20T06:22:20.638Z,4.40
2023-04-20T06:24:53.090Z,4.40
2023-04-20T06:27:25.561Z,4.40
2023-04-20T06:29:57.795Z,4.40
2023-04-20T06:32:30.134Z,4.50
2023-04-20T06:35:02.797Z,4.50
2023-04-20T06:37:38.123Z,4.50
2023-04-20T06:40:10.465Z,4.50
2023-04-20T06:42:42.603Z,4.40
2023-04-20T06:45:14.715Z,4.50
2023-04-20T06:47:46.965Z,4.50
2023-04-20T06:50:19.975Z,4.50
2023-04-20T06:52:52.177Z,4.50
2023-04-20T06:55:24.421Z,4.60
2023-04-20T06:57:57.041Z,4.60
2023-04-20T07:00:29.158Z,4.60
2023-04-20T07:03:02.936Z,4.60
2023-04-20T07:05:36.816Z,4.60
2023-04-20T07:08:09.723Z,4.60
2023-04-20T07:10:41.862Z,4.70
2023-04-20T07:13:14.291Z,4.70
2023-04-20T07:15:46.608Z,4.70
2023-04-20T07:18:19.053Z,4.60
2023-04-20T07:20:52.227Z,4.60
2023-04-20T07:23:24.913Z,4.60
2023-04-20T07:25:57.033Z,4.60
2023-04-20T07:28:29.093Z,4.60
2023-04-20T07:31:01.712Z,4.50
2023-04-20T07:33:35.903Z,4.50
2023-04-20T07:36:08.612Z,4.50
2023-04-20T07:38:40.780Z,4.50
2023-04-20T07:41:13.017Z,4.50
2023-04-20T07:43:45.148Z,4.60
2023-04-20T07:46:21.856Z,4.60
2023-04-20T07:48:54.128Z,4.60
2023-04-20T07:51:26.900Z,4.70
2023-04-20T07:53:58.971Z,4.70
2023-04-20T07:56:32.271Z,4.70
2023-04-20T07:59:04.402Z,4.70
2023-04-20T08:01:37.170Z,4.70
2023-04-20T08:04:09.507Z,4.70
2023-04-20T08:06:41.830Z,4.70
2023-04-20T08:09:13.951Z,4.70
2023-04-20T08:11:46.522Z,4.80
2023-04-20T08:14:18.986Z,4.80
2023-04-20T08:16:51.743Z,4.80
2023-04-20T08:19:23.978Z,4.90
2023-04-20T08:21:56.740Z,4.90
2023-04-20T08:24:29.476Z,4.90
2023-04-20T08:27:01.896Z,4.90
2023-04-20T08:29:33.993Z,4.80
2023-04-20T08:32:09.372Z,4.90
2023-04-20T08:34:45.103Z,4.90
2023-04-20T08:37:17.239Z,5.00
2023-04-20T08:39:49.571Z,4.90
2023-04-20T08:42:21.800Z,4.90
2023-04-20T08:44:53.899Z,4.90
2023-04-20T08:47:28.210Z,5.00
2023-04-20T08:50:01.356Z,4.90
2023-04-20T08:52:36.088Z,5.00
2023-04-20T08:55:08.964Z,4.90
2023-04-20T08:57:42.590Z,4.90
2023-04-20T09:00:15.135Z,4.90
2023-04-20T09:02:55.242Z,4.90
2023-04-20T09:05:32.362Z,4.90
2023-04-20T09:08:05.402Z,4.90
2023-04-20T09:10:45.125Z,4.90
2023-04-20T09:13:24.396Z,4.90
2023-04-20T09:15:56.633Z,4.90
2023-04-20T09:18:28.855Z,4.80
2023-04-20T09:21:09.184Z,4.80
2023-04-20T09:23:41.533Z,4.90
2023-04-20T09:26:19.211Z,5.00
2023-04-20T09:28:51.429Z,5.00
2023-04-20T09:31:24.115Z,5.00
2023-04-20T09:34:01.474Z,5.00
2023-04-20T09:36:42.197Z,5.10
2023-04-20T09:39:17.224Z,5.20
2023-04-20T09:41:53.266Z,5.20
2023-04-20T09:44:25.634Z,5.20
2023-04-20T09:46:59.667Z,5.20
2023-04-20T09:49:32.766Z,5.30
2023-04-20T09:52:05.336Z,5.30
2023-04-20T09:54:38.230Z,5.20
2023-04-20T09:57:10.579Z,5.30
2023-04-20T09:59:44.192Z,5.30
2023-04-20T10:02:16.316Z,5.30
2023-04-20T10:04:56.674Z,5.30
2023-04-20T10:07:32.027Z,5.40
2023-04-20T10:10:12.837Z,5.40
2023-04-20T10:12:52.665Z,5.40
2023-04-20T10:15:37.318Z,5.40
2023-04-20T10:18:24.079Z,5.50
2023-04-20T10:21:11.284Z,5.40
2023-04-20T10:23:51.003Z,5.40
2023-04-20T10:26:23.704Z,5.50
2023-04-20T10:28:56.080Z,5.50
2023-04-20T10:31:41.946Z,5.40
2023-04-20T10:34:14.707Z,5.50
2023-04-20T10:36:46.960Z,5.60
2023-04-20T10:39:22.382Z,5.80
2023-04-20T10:42:02.335Z,5.80
2023-04-20T10:44:35.696Z,5.90
2023-04-20T10:47:07.887Z,6.00
2023-04-20T10:49:40.411Z,6.00
2023-04-20T10:52:12.595Z,6.00
2023-04-20T10:54:44.661Z,6.00
2023-04-20T10:57:17.223Z,6.00
2023-04-20T10:59:49.431Z,6.00
2023-04-20T11:02:22.072Z,6.00
2023-04-20T11:05:01.006Z,6.00
2023-04-20T11:07:33.575Z,6.00
2023-04-20T11:10:07.187Z,6.00
2023-04-20T11:12:40.150Z,6.00
2023-04-20T11:15:12.386Z,6.00
2023-04-20T11:17:45.264Z,6.00
2023-04-20T11:20:18.734Z,6.10
2023-04-20T11:22:57.584Z,6.10
2023-04-20T11:25:30.107Z,6.00
2023-04-20T11:28:11.550Z,6.00
2023-04-20T11:30:44.157Z,6.10
2023-04-20T11:33:28.287Z,6.10
2023-04-20T11:36:02.074Z,6.10
2023-04-20T11:38:35.270Z,6.20
2023-04-20T11:41:08.051Z,6.20
2023-04-20T11:43:40.287Z,6.20
2023-04-20T11:46:21.689Z,6.20
2023-04-20T11:48:54.455Z,6.20
2023-04-20T11:51:27.793Z,6.20
2023-04-20T11:53:59.970Z,6.20
2023-04-20T11:56:32.306Z,6.20
2023-04-20T11:59:05.024Z,6.20
2023-04-20T12:01:38.598Z,6.20
2023-04-20T12:04:11.135Z,6.20
2023-04-20T12:06:43.643Z,6.30
2023-04-20T12:09:15.815Z,6.20
2023-04-20T12:11:47.972Z,6.30
2023-04-20T12:14:20.349Z,6.30
2023-04-20T12:16:52.855Z,6.30
2023-04-20T12:19:24.974Z,6.30
2023-04-20T12:21:57.148Z,6.30
2023-04-20T12:24:29.942Z,6.30
2023-04-20T12:27:03.965Z,6.40
2023-04-20T12:29:36.082Z,6.30
2023-04-20T12:32:08.512Z,6.30
2023-04-20T12:34:41.212Z,6.40
2023-04-20T12:37:14.866Z,6.40
2023-04-20T12:39:46.829Z,6.40
2023-04-20T12:42:19.551Z,6.30
2023-04-20T12:44:54.904Z,6.30
2023-04-20T12:47:27.096Z,6.40
2023-04-20T12:49:59.440Z,6.40
2023-04-20T12:52:31.594Z,6.50
2023-04-20T12:55:04.323Z,6.50
2023-04-20T12:57:37.426Z,6.60
2023-04-20T13:00:11.620Z,6.70
2023-04-20T13:02:45.453Z,6.80
2023-04-20T13:05:17.944Z,6.80
2023-04-20T13:07:50.056Z,6.90
2023-04-20T13:10:22.347Z,7.00
2023-04-20T13:12:54.450Z,7.10
2023-04-20T13:15:38.000Z,7.20
2023-04-20T13:18:11.427Z,7.20
2023-04-20T13:20:43.516Z,7.30
2023-04-20T13:23:16.040Z,7.20
2023-04-20T13:25:48.606Z,7.20
2023-04-20T13:28:20.792Z,7.20
2023-04-20T13:30:55.600Z,7.30
2023-04-20T13:33:27.776Z,7.30
2023-04-20T13:36:00.139Z,7.20
2023-04-20T13:38:32.307Z,7.20
2023-04-20T13:41:04.720Z,7.30
2023-04-20T13:43:37.125Z,7.30
2023-04-20T13:46:09.432Z,7.30
2023-04-20T13:48:42.639Z,7.30
2023-04-20T13:51:14.978Z,7.30
2023-04-20T13:53:50.051Z,7.50
2023-04-20T13:56:22.297Z,7.60
2023-04-20T13:58:54.468Z,7.50
2023-04-20T14:01:26.879Z,7.50
2023-04-20T14:03:59.399Z,7.50
2023-04-20T14:06:32.178Z,7.50
2023-04-20T14:09:04.468Z,7.40
2023-04-20T14:11:36.739Z,7.40
2023-04-20T14:14:09.582Z,7.40
2023-04-20T14:16:46.207Z,7.40
2023-04-20T14:19:18.479Z,7.40
2023-04-20T14:21:51.323Z,7.50
2023-04-20T14:24:24.303Z,7.40
2023-04-20T14:26:57.295Z,7.40
2023-04-20T14:29:29.516Z,7.40
2023-04-20T14:32:01.685Z,7.30
2023-04-20T14:34:34.104Z,7.30
2023-04-20T14:37:06.231Z,7.40
2023-04-20T14:39:38.880Z,7.50
2023-04-20T14:42:12.155Z,7.40
2023-04-20T14:44:44.849Z,7.40
2023-04-20T14:47:17.078Z,7.50
2023-04-20T14:49:49.195Z,7.50
2023-04-20T14:52:21.653Z,7.50
2023-04-20T14:54:54.010Z,7.50
2023-04-20T14:57:26.257Z,7.50
2023-04-20T14:59:58.467Z,7.50
2023-04-20T15:02:31.313Z,7.70
2023-04-20T15:07:36.263Z,7.80
2023-04-20T15:10:09.450Z,7.90
2023-04-20T15:12:41.532Z,7.90
2023-04-20T15:15:14.296Z,7.90
2023-04-20T15:17:47.112Z,8.00
2023-04-20T15:20:19.797Z,8.10
2023-04-20T15:22:52.027Z,8.20
2023-04-20T15:25:24.891Z,8.30
2023-04-20T15:27:57.051Z,8.40
2023-04-20T15:30:30.643Z,8.50
2023-04-20T15:33:05.104Z,8.50
2023-04-20T15:35:38.290Z,8.50
2023-04-20T15:38:10.543Z,8.40
2023-04-20T15:40:42.769Z,8.40
2023-04-20T15:43:15.130Z,8.50
2023-04-20T15:45:47.329Z,8.60
2023-04-20T15:48:19.688Z,8.60
2023-04-20T15:50:52.716Z,8.60
2023-04-20T15:53:25.425Z,8.60
2023-04-20T15:55:57.819Z,8.50
2023-04-20T15:58:30.056Z,8.50
2023-04-20T16:01:02.195Z,8.50
2023-04-20T16:03:34.666Z,8.50
2023-04-20T16:06:07.399Z,8.60
2023-04-20T16:08:39.790Z,8.60
2023-04-20T16:11:11.871Z,8.60
2023-04-20T16:13:44.694Z,8.70
2023-04-20T16:16:16.875Z,8.70
2023-04-20T16:18:49.163Z,8.60
2023-04-20T16:21:22.818Z,8.70
2023-04-20T16:23:56.806Z,8.80
2023-04-20T16:26:29.197Z,8.80
2023-04-20T16:29:01.505Z,8.80
2023-04-20T16:31:33.644Z,8.80
2023-04-20T16:34:05.859Z,8.80
2023-04-20T16:36:37.997Z,8.80
2023-04-20T16:39:10.515Z,8.90
2023-04-20T16:41:42.719Z,8.80
2023-04-20T16:44:16.656Z,8.70
2023-04-20T16:46:52.058Z,8.60
2023-04-20T16:49:24.272Z,8.60
2023-04-20T16:51:57.620Z,8.60
2023-04-20T16:54:29.799Z,8.60
2023-04-20T16:57:02.312Z,8.60
2023-04-20T16:59:34.514Z,8.50
2023-04-20T17:02:06.875Z,8.50
2023-04-20T17:04:40.338Z,8.50
2023-04-20T17:07:13.649Z,8.50
2023-04-20T17:09:46.048Z,8.60
2023-04-20T17:12:18.198Z,8.60
2023-04-20T17:14:50.596Z,8.50
2023-04-20T17:17:22.871Z,8.50
2023-04-20T17:19:55.206Z,8.50
2023-04-20T17:22:27.347Z,8.40
2023-04-20T17:25:00.907Z,8.40
2023-04-20T17:27:33.274Z,8.40
2023-04-20T17:30:06.356Z,8.40
2023-04-20T17:32:39.045Z,8.30
2023-04-20T17:35:11.349Z,8.30
2023-04-20T17:37:43.513Z,8.30
2023-04-20T17:40:15.821Z,8.30
2023-04-20T17:42:48.069Z,8.10
2023-04-20T17:45:20.288Z,8.20
2023-04-20T17:47:53.921Z,8.20
2023-04-20T17:50:26.134Z,8.10
2023-04-20T17:52:58.238Z,8.10
2023-04-20T17:55:30.785Z,8.10
2023-04-20T17:58:02.960Z,8.10
2023-04-20T18:00:35.443Z,8.00
2023-04-20T18:03:07.754Z,8.00
2023-04-20T18:05:40.032Z,8.00
2023-04-20T18:08:13.565Z,7.90
2023-04-20T18:10:46.314Z,7.90
2023-04-20T18:13:18.413Z,7.90
2023-04-20T18:15:51.054Z,7.80
2023-04-20T18:18:23.219Z,7.90
2023-04-20T18:20:55.868Z,7.70
2023-04-20T18:23:30.374Z,7.70
2023-04-20T18:26:02.751Z,7.70
2023-04-20T18:28:35.572Z,7.60
2023-04-20T18:31:08.124Z,7.60
2023-04-20T18:33:40.584Z,7.50
2023-04-20T18:36:12.756Z,7.50
2023-04-20T18:38:45.430Z,7.50
2023-04-20T18:41:18.315Z,7.50
2023-04-20T18:43:53.891Z,7.60
2023-04-20T18:46:26.105Z,7.60
2023-04-20T18:48:58.521Z,7.60
2023-04-20T18:51:32.267Z,7.60
2023-04-20T18:54:05.244Z,7.60
2023-04-20T18:56:38.888Z,7.50
2023-04-20T18:59:12.437Z,7.60
2023-04-20T19:01:44.640Z,7.50
2023-04-20T19:04:18.049Z,7.50
2023-04-20T19:06:50.511Z,7.50
2023-04-20T19:09:23.527Z,7.50
2023-04-20T19:11:55.670Z,7.40
2023-04-20T19:14:27.894Z,7.40
2023-04-20T19:17:02.216Z,7.40
2023-04-20T19:19:37.620Z,7.40
2023-04-20T19:22:09.966Z,7.40
2023-04-20T19:24:42.432Z,7.50
2023-04-20T19:27:14.942Z,7.40
2023-04-20T19:29:47.425Z,7.40
2023-04-20T19:32:19.576Z,7.40
2023-04-20T19:34:56.644Z,7.40
2023-04-20T19:37:29.007Z,7.40
2023-04-20T19:40:01.400Z,7.30
2023-04-20T19:42:33.678Z,7.30
2023-04-20T19:45:06.872Z,7.30
2023-04-20T19:47:39.117Z,7.30
2023-04-20T19:50:11.591Z,7.30
2023-04-20T19:52:43.817Z,7.30
2023-04-20T19:55:15.984Z,7.30
2023-04-20T19:57:48.265Z,7.30
2023-04-20T20:00:20.947Z,7.20
2023-04-20T20:02:53.527Z,7.30
2023-04-20T20:05:25.898Z,7.30
2023-04-20T20:07:57.978Z,7.30
2023-04-20T20:10:30.422Z,7.30
2023-04-20T20:13:02.786Z,7.20
2023-04-20T20:15:37.515Z,7.20
2023-04-20T20:18:10.724Z,7.20
2023-04-20T20:20:43.486Z,7.20
2023-04-20T20:23:15.720Z,7.10
2023-04-20T20:25:48.233Z,7.20
2023-04-20T20:28:20.902Z,7.10
2023-04-20T20:30:53.161Z,7.20
2023-04-20T20:33:27.007Z,7.20
2023-04-20T20:36:01.730Z,7.20
2023-04-20T20:38:34.820Z,7.20
2023-04-20T20:41:07.086Z,7.20
2023-04-20T20:43:42.291Z,7.20
2023-04-20T20:46:14.691Z,7.20
2023-04-20T20:48:47.118Z,7.10
2023-04-20T20:51:19.834Z,7.20
2023-04-20T20:53:52.283Z,7.20
2023-04-20T20:56:24.910Z,7.20
2023-04-20T20:58:57.272Z,7.20
2023-04-20T21:01:29.460Z,7.20
2023-04-20T21:04:01.686Z,7.20
2023-04-20T21:06:34.145Z,7.10
2023-04-20T21:09:06.345Z,7.20
2023-04-20T21:11:38.467Z,7.20
2023-04-20T21:14:10.857Z,7.20
2023-04-20T21:16:43.028Z,7.20
2023-04-20T21:19:15.149Z,7.20
2023-04-20T21:21:47.193Z,7.20
2023-04-20T21:24:19.521Z,7.10
2023-04-20T21:26:52.689Z,7.20
2023-04-20T21:29:24.839Z,7.20
2023-04-20T21:31:57.205Z,7.20
2023-04-20T21:34:29.386Z,7.30
2023-04-20T21:37:05.373Z,7.30
2023-04-20T21:39:37.580Z,7.30
2023-04-20T21:42:10.120Z,7.30
2023-04-20T21:44:42.380Z,7.30
2023-04-20T21:47:14.469Z,7.20
2023-04-20T21:49:46.499Z,7.20
2023-04-20T21:52:18.682Z,7.20
2023-04-20T21:54:50.821Z,7.20
2023-04-20T21:57:23.354Z,7.20
2023-04-20T21:59:55.465Z,7.20
2023-04-20T22:02:27.667Z,7.20
2023-04-20T22:04:59.918Z,7.30
2023-04-20T22:07:32.894Z,7.30
2023-04-20T22:10:06.359Z,7.20
2023-04-20T22:12:40.670Z,7.20
2023-04-20T22:15:14.456Z,7.10
2023-04-20T22:17:46.772Z,7.20
2023-04-20T22:20:19.593Z,7.10
2023-04-20T22:22:51.653Z,7.10
2023-04-20T22:25:26.900Z,7.20
2023-04-20T22:27:58.979Z,7.20
2023-04-20T22:30:31.337Z,7.30
2023-04-20T22:33:04.223Z,7.10
2023-04-20T22:35:36.486Z,7.10
2023-04-20T22:38:08.796Z,7.10
2023-04-20T22:40:40.876Z,7.00
2023-04-20T22:43:13.067Z,7.00
2023-04-20T22:45:45.525Z,7.00
2023-04-20T22:48:17.788Z,7.00
2023-04-20T22:50:49.845Z,7.00
2023-04-20T22:53:21.918Z,7.00
2023-04-20T22:55:53.984Z,7.00
2023-04-20T22:58:26.125Z,7.00
2023-04-20T23:00:58.854Z,7.00
2023-04-20T23:03:31.597Z,7.00
2023-04-20T23:06:03.933Z,7.10
2023-04-20T23:08:35.980Z,7.20
2023-04-20T23:11:08.282Z,7.10
2023-04-20T23:13:41.475Z,7.10
2023-04-20T23:16:13.891Z,7.10
2023-04-20T23:18:46.004Z,7.00
2023-04-20T23:21:18.421Z,7.10
2023-04-20T23:23:50.879Z,7.10
2023-04-20T23:26:23.979Z,7.00
2023-04-20T23:28:56.144Z,7.00
2023-04-20T23:31:28.493Z,7.00
2023-04-20T23:34:00.794Z,7.00
2023-04-20T23:36:33.063Z,7.00
2023-04-20T23:39:05.950Z,7.00
2023-04-20T23:41:38.016Z,7.00
2023-04-20T23:44:10.197Z,7.00
2023-04-20T23:46:42.341Z,6.90
2023-04-20T23:49:14.430Z,6.90
2023-04-20T23:51:46.517Z,6.90
2023-04-20T23:54:18.646Z,7.00
2023-04-20T23:56:51.093Z,6.90
2023-04-20T23:59:23.474Z,7.00
